This is the latest recevied weather packets stored in our database for station/object 5B4APJ-13. If no packets are shown the sender has not sent any weather packets the latest 10 day(s).
| Time | Temp. | Humidity | Pressure | Rain* | Wind** | Luminosity | Snow |
|---|---|---|---|---|---|---|---|
| 1777613226 | 20.56° C | 50% | 1013.3 hPa | 0 mm | 0.89 m/s, 123° | 320 W/m² | - |
| 1777612927 | 21.67° C | 48% | 1013.2 hPa | 0 mm | 0.89 m/s, 85° | 313 W/m² | - |
| 1777612627 | 21.11° C | 49% | 1013.2 hPa | 0 mm | 0.45 m/s, 29° | 298 W/m² | - |
| 1777612327 | 20.56° C | 49% | 1013.2 hPa | 0 mm | 1.34 m/s, 45° | 284 W/m² | - |
| 1777612026 | 20° C | 50% | 1013.3 hPa | 0 mm | 0.89 m/s, 49° | 269 W/m² | - |
| 1777611726 | 20.56° C | 50% | 1013.3 hPa | 0 mm | 0.45 m/s, 48° | 253 W/m² | - |
| 1777611426 | 20.56° C | 49% | 1013.5 hPa | 0 mm | 0 m/s | 237 W/m² | - |
| 1777611126 | 20° C | 49% | 1013.2 hPa | 0 mm | 0.89 m/s, 23° | 217 W/m² | - |
| 1777610826 | 19.44° C | 50% | 1013 hPa | 0 mm | 0.89 m/s, 265° | 202 W/m² | - |
| 1777610526 | 18.89° C | 52% | 1013 hPa | 0 mm | 0.45 m/s, 262° | 186 W/m² | - |
| 1777610226 | 18.89° C | 53% | 1013.1 hPa | 0 mm | 0.45 m/s, 262° | 174 W/m² | - |
| 1777609926 | 18.33° C | 54% | 1013 hPa | 0 mm | 0.45 m/s, 256° | 163 W/m² | - |
| 1777609626 | 17.78° C | 56% | 1013.1 hPa | 0 mm | 0.45 m/s, 249° | 147 W/m² | - |
| 1777609326 | 17.22° C | 58% | 1013.1 hPa | 0 mm | 0.89 m/s, 254° | 138 W/m² | - |
| 1777609026 | 17.22° C | 58% | 1013.2 hPa | 0 mm | 0.89 m/s, 260° | 98 W/m² | - |
| 1777608726 | 17.22° C | 58% | 1013.1 hPa | 0 mm | 0.45 m/s, 276° | 123 W/m² | - |
| 1777608426 | 16.67° C | 59% | 1013.2 hPa | 0 mm | 0.89 m/s, 248° | 113 W/m² | - |
| 1777608125 | 16.11° C | 60% | 1013.1 hPa | 0 mm | 0.89 m/s, 242° | 101 W/m² | - |
| 1777607826 | 15.56° C | 60% | 1012.9 hPa | 0 mm | 0.89 m/s, 241° | 92 W/m² | - |
| 1777607526 | 15.56° C | 62% | 1013.2 hPa | 0 mm | 0.45 m/s, 251° | 81 W/m² | - |
| 1777607226 | 15° C | 64% | 1013.1 hPa | 0 mm | 0.89 m/s, 265° | 68 W/m² | - |
| 1777606626 | 13.89° C | 69% | 1013.1 hPa | 0 mm | 0.89 m/s, 260° | 46 W/m² | - |
| 1777606326 | 13.89° C | 70% | 1013.3 hPa | 0 mm | 0.89 m/s, 262° | 38 W/m² | - |
| 1777606028 | 13.33° C | 71% | 1013.1 hPa | 0 mm | 0.89 m/s, 264° | 31 W/m² | - |
| 1777605726 | 13.33° C | 72% | 1013.3 hPa | 0 mm | 1.34 m/s, 267° | 25 W/m² | - |
* Rain latest hour (hover to see other rain measurements)
** Current wind speed in m/s (hover to see current wind gust speed)